Time;durP1;ratioP1;P1;durP2;ratioP2;P2;SDS_P1;SDS_P2;PMS_P1;PMS_P2;Temp;Humidity;BMP_temperature;BMP_pressure;BME280_temperature;BME280_humidity;BME280_pressure;Samples;Min_cycle;Max_cycle;Signal;HPM_P1;HPM_P2
2022/04/11 00:00:10;;;;;;;7.22;4.93;;;;;;;3.84;66.39;99253.75;2623867;54;20023;-65
2022/04/11 00:02:40;;;;;;;7.93;4.35;;;;;;;3.85;66.13;99256.22;2624279;54;20031;-65
2022/04/11 00:05:12;;;;;;;7.85;4.60;;;;;;;3.82;65.57;99248.63;2624617;54;20026;-63
2022/04/11 00:07:42;;;;;;;4.85;4.28;;;;;;;3.72;66.08;99247.81;2623296;46;20074;-64
2022/04/11 00:10:12;;;;;;;6.97;4.70;;;;;;;3.69;66.11;99255.94;2624379;54;20037;-64
2022/04/11 00:12:41;;;;;;;6.70;4.70;;;;;;;3.77;66.33;99248.22;2624428;54;20042;-64
2022/04/11 00:15:12;;;;;;;8.45;4.88;;;;;;;3.77;66.04;99250.84;2624554;39;20454;-65
2022/04/11 00:17:41;;;;;;;7.85;4.80;;;;;;;3.80;66.52;99255.81;2623057;47;20167;-65
2022/04/11 00:20:14;;;;;;;7.07;4.40;;;;;;;3.89;66.16;99254.16;2623691;54;20094;-65
2022/04/11 00:22:44;;;;;;;10.07;5.47;;;;;;;3.90;65.76;99248.75;2624229;54;20034;-64
2022/04/11 00:25:13;;;;;;;8.35;4.60;;;;;;;3.72;66.24;99239.97;2623088;47;20034;-65
2022/04/11 00:27:43;;;;;;;5.57;4.30;;;;;;;3.66;66.44;99246.56;2622344;54;20034;-64
2022/04/11 00:30:14;;;;;;;12.60;5.53;;;;;;;3.70;66.53;99239.28;2622311;54;20027;-65
2022/04/11 00:32:45;;;;;;;6.05;4.88;;;;;;;3.62;66.40;99242.56;2621635;54;20034;-65
2022/04/11 00:35:18;;;;;;;6.63;5.32;;;;;;;3.52;66.49;99235.72;2622462;54;20027;-66
2022/04/11 00:37:48;;;;;;;7.00;5.07;;;;;;;3.40;66.78;99232.41;2623014;54;20042;-65
2022/04/11 00:40:19;;;;;;;6.82;4.35;;;;;;;3.34;67.65;99232.94;2624208;54;20038;-66
2022/04/11 00:42:51;;;;;;;6.25;4.63;;;;;;;3.50;67.93;99228.00;2622346;46;20023;-65
2022/04/11 00:45:21;;;;;;;7.30;5.18;;;;;;;3.58;67.50;99230.75;2622752;54;20040;-64
2022/04/11 00:47:51;;;;;;;7.55;5.32;;;;;;;3.60;67.66;99221.00;2622486;46;20041;-65
2022/04/11 00:50:23;;;;;;;9.80;4.88;;;;;;;3.67;67.67;99218.63;2622876;54;20038;-65
2022/04/11 00:52:56;;;;;;;8.32;4.68;;;;;;;3.76;67.61;99217.81;2622010;54;20083;-64
2022/04/11 00:55:27;;;;;;;8.15;4.40;;;;;;;3.68;66.89;99204.63;2621962;54;20079;-65
2022/04/11 00:57:59;;;;;;;7.80;4.78;;;;;;;3.63;67.00;99207.66;2621993;54;20041;-65
2022/04/11 01:00:29;;;;;;;7.20;4.60;;;;;;;3.63;67.56;99202.41;2621137;47;20254;-65
2022/04/11 01:02:59;;;;;;;7.88;5.20;;;;;;;3.70;67.74;99200.88;2622008;39;20442;-65
2022/04/11 01:05:31;;;;;;;5.72;4.60;;;;;;;3.71;66.96;99199.94;2622012;54;20574;-65
2022/04/11 01:08:08;;;;;;;7.20;4.32;;;;;;;3.74;67.00;99198.81;2621467;51;20037;-65
2022/04/11 01:10:38;;;;;;;7.63;5.30;;;;;;;3.82;67.57;99196.31;2621440;54;20025;-65
2022/04/11 01:13:08;;;;;;;9.93;4.95;;;;;;;3.89;67.06;99194.00;2622345;54;20037;-65
2022/04/11 01:15:40;;;;;;;8.63;4.95;;;;;;;3.95;67.01;99188.19;2620164;47;20027;-65
2022/04/11 01:18:10;;;;;;;5.13;4.47;;;;;;;4.04;66.98;99187.34;2620163;54;20033;-66
2022/04/11 01:20:42;;;;;;;7.07;4.55;;;;;;;4.04;66.68;99187.34;2620432;54;20539;-66
2022/04/11 01:23:17;;;;;;;;;;;;;;;4.03;66.43;99180.44;2620535;54;20531;-66
2022/04/11 01:25:51;;;;;;;7.43;5.07;;;;;;;3.99;66.31;99181.69;2620596;39;20350;-66
2022/04/11 01:28:24;;;;;;;7.15;4.97;;;;;;;3.90;66.63;99172.91;2620703;47;20029;-66
2022/04/11 01:30:55;;;;;;;7.47;4.78;;;;;;;3.83;67.08;99177.03;2621754;54;20648;-65
2022/04/11 01:33:28;;;;;;;6.78;4.45;;;;;;;3.83;66.92;99186.69;2621991;54;20046;-64
2022/04/11 01:36:01;;;;;;;4.93;4.35;;;;;;;3.89;67.59;99184.34;2621037;47;20042;-65
2022/04/11 01:38:34;;;;;;;7.40;4.95;;;;;;;3.96;67.08;99187.25;2621215;46;20048;-65
2022/04/11 01:41:04;;;;;;;9.65;4.88;;;;;;;3.86;66.65;99189.84;2620999;54;20027;-65
2022/04/11 01:43:34;;;;;;;7.50;4.85;;;;;;;3.76;67.04;99183.00;2620268;47;20034;-65
2022/04/11 01:46:04;;;;;;;5.72;4.45;;;;;;;3.68;67.06;99178.47;2620402;54;20030;-67
2022/04/11 01:48:39;;;;;;;6.45;4.50;;;;;;;3.72;67.66;99172.00;2621720;46;20033;-65
2022/04/11 01:51:10;;;;;;;6.55;4.88;;;;;;;3.79;67.76;99167.84;2622491;47;20073;-64
2022/04/11 01:53:43;;;;;;;7.28;5.03;;;;;;;3.80;67.25;99161.66;2622819;46;20061;-65
2022/04/11 01:56:13;;;;;;;7.40;4.13;;;;;;;3.76;67.55;99160.28;2621414;47;20023;-65
2022/04/11 01:58:43;;;;;;;5.47;4.60;;;;;;;3.68;67.47;99158.38;2621490;54;20126;-64
2022/04/11 02:01:12;;;;;;;9.45;5.00;;;;;;;3.67;67.43;99158.50;2621975;54;20042;-64
2022/04/11 02:03:42;;;;;;;6.63;4.70;;;;;;;3.63;68.06;99157.97;2622355;54;20030;-66
2022/04/11 02:06:12;;;;;;;5.38;4.03;;;;;;;3.67;68.44;99164.56;2621987;54;20029;-64
2022/04/11 02:08:44;;;;;;;6.07;4.13;;;;;;;3.80;68.35;99164.28;2621650;54;20569;-63
2022/04/11 02:11:16;;;;;;;7.03;4.57;;;;;;;3.76;67.54;99173.38;2621450;54;20049;-64
2022/04/11 02:13:46;;;;;;;5.65;4.38;;;;;;;3.78;67.67;99160.13;2621479;54;20549;-64
2022/04/11 02:16:16;;;;;;;7.47;5.05;;;;;;;3.69;67.34;99156.56;2621346;54;20026;-64
2022/04/11 02:18:46;;;;;;;5.30;4.80;;;;;;;3.61;67.71;99161.69;2621400;54;20062;-63
2022/04/11 02:21:15;;;;;;;6.28;4.68;;;;;;;3.57;67.99;99157.69;2621404;54;20041;-66
2022/04/11 02:23:48;;;;;;;6.75;4.50;;;;;;;3.56;67.57;99163.91;2621252;54;20041;-65
2022/04/11 02:26:18;;;;;;;6.82;4.60;;;;;;;3.49;68.08;99150.53;2621259;54;20026;-66
2022/04/11 02:28:47;;;;;;;6.30;4.60;;;;;;;3.44;68.24;99153.56;2620961;47;20034;-65
2022/04/11 02:31:17;;;;;;;5.47;4.63;;;;;;;3.51;68.38;99147.78;2621990;47;20045;-65
2022/04/11 02:33:47;;;;;;;5.90;5.13;;;;;;;3.57;68.04;99148.06;2624031;54;20086;-66
2022/04/11 02:36:17;;;;;;;5.75;4.80;;;;;;;3.50;68.19;99133.88;2622808;54;20022;-65
2022/04/11 02:38:49;;;;;;;7.45;4.60;;;;;;;3.41;67.93;99129.50;2622403;47;20030;-65
2022/04/11 02:41:20;;;;;;;7.40;5.30;;;;;;;3.37;68.25;99128.13;2623412;39;20464;-65
2022/04/11 02:43:53;;;;;;;9.63;5.30;;;;;;;3.40;68.60;99127.88;2622944;54;20030;-65
2022/04/11 02:46:25;;;;;;;7.78;5.03;;;;;;;3.41;68.49;99125.09;2623319;54;20041;-65
2022/04/11 02:48:55;;;;;;;7.75;4.80;;;;;;;3.39;68.70;99119.19;2622728;54;20023;-65
2022/04/11 02:51:43;;;;;;;6.35;5.15;;;;;;;3.39;68.68;99111.38;2622645;54;20029;-65
2022/04/11 02:54:20;;;;;;;8.20;4.70;;;;;;;3.43;68.78;99112.72;2622544;54;20577;-65
2022/04/11 02:56:51;;;;;;;8.07;5.18;;;;;;;3.42;69.06;99115.47;2623145;47;20030;-63
2022/04/11 02:59:21;;;;;;;8.18;4.80;;;;;;;3.45;69.09;99118.63;2622177;54;20018;-63
2022/04/11 03:01:56;;;;;;;6.78;5.32;;;;;;;3.53;69.15;99114.50;2622859;54;20155;-65
2022/04/11 03:04:26;;;;;;;7.55;4.90;;;;;;;3.61;69.16;99123.28;2621627;47;20039;-64
2022/04/11 03:07:06;;;;;;;5.25;4.38;;;;;;;3.66;68.61;99121.06;2621079;47;20122;-62
2022/04/11 03:09:38;;;;;;;9.30;4.78;;;;;;;3.71;68.58;99125.88;2622048;47;20034;-65
2022/04/11 03:12:11;;;;;;;7.18;4.72;;;;;;;3.69;68.41;99120.78;2623169;51;20038;-63
2022/04/11 03:14:41;;;;;;;7.70;5.40;;;;;;;3.60;68.59;99119.03;2623288;47;20026;-62
2022/04/11 03:17:12;;;;;;;6.72;4.57;;;;;;;3.57;68.75;99115.88;2622625;54;20697;-63
2022/04/11 03:19:42;;;;;;;11.40;5.47;;;;;;;3.52;68.44;99103.22;2623310;54;20026;-65
2022/04/11 03:22:12;;;;;;;6.72;4.70;;;;;;;3.45;68.73;99102.94;2622975;54;20040;-64
2022/04/11 03:24:49;;;;;;;6.80;4.70;;;;;;;3.47;68.92;99102.81;2623117;54;20041;-65
2022/04/11 03:27:19;;;;;;;8.25;5.55;;;;;;;3.46;69.33;99104.59;2622609;47;20026;-64
2022/04/11 03:29:49;;;;;;;6.85;4.57;;;;;;;3.53;69.22;99106.66;2624315;54;20065;-65
2022/04/11 03:32:19;;;;;;;8.45;4.57;;;;;;;3.61;69.09;99109.41;2623146;54;20038;-65
2022/04/11 03:34:51;;;;;;;7.00;5.28;;;;;;;3.56;68.73;99107.19;2623595;54;20031;-65
2022/04/11 03:37:22;;;;;;;6.88;4.57;;;;;;;3.39;68.51;99113.97;2623889;54;20031;-64
2022/04/11 03:40:04;;;;;;;6.43;5.40;;;;;;;3.39;69.02;99105.31;2623582;54;20558;-65
2022/04/11 03:42:33;;;;;;;7.95;4.85;;;;;;;3.36;69.09;99111.63;2624552;54;20094;-65
2022/04/11 03:45:04;;;;;;;7.05;5.28;;;;;;;3.32;69.51;99110.25;2623451;54;20534;-66
2022/04/11 03:47:34;;;;;;;7.43;4.82;;;;;;;3.27;69.13;99106.41;2622123;54;20591;-66
2022/04/11 03:50:05;;;;;;;8.13;5.95;;;;;;;3.28;69.58;99106.28;2622726;47;20082;-65
2022/04/11 03:52:39;;;;;;;7.93;6.05;;;;;;;3.31;69.30;99110.41;2623225;54;20023;-65
2022/04/11 03:55:14;;;;;;;8.07;5.53;;;;;;;3.36;69.69;99100.34;2623335;54;20030;-65
2022/04/11 03:57:47;;;;;;;9.45;5.47;;;;;;;3.38;69.38;99093.19;2622453;46;20045;-66
2022/04/11 04:00:17;;;;;;;8.18;4.85;;;;;;;3.46;69.67;99095.94;2623197;54;20581;-64
2022/04/11 04:03:17;;;;;;;6.90;4.88;;;;;;;3.44;69.23;99101.31;2623486;54;20041;-63
2022/04/11 04:05:51;;;;;;;7.25;4.95;;;;;;;3.41;68.59;99096.34;2623155;54;20034;-62
2022/04/11 04:08:25;;;;;;;;;;;;;;;3.27;69.04;99102.00;2622996;51;20027;-63
2022/04/11 04:11:04;;;;;;;9.40;5.07;;;;;;;3.22;69.14;99094.59;2623252;47;20458;-64
2022/04/11 04:13:43;;;;;;;8.48;5.47;;;;;;;3.22;69.13;99088.53;2623452;39;20431;-64
2022/04/11 04:16:13;;;;;;;5.90;4.88;;;;;;;3.10;69.02;99089.63;2619858;54;20042;-67
2022/04/11 04:18:51;;;;;;;6.78;5.03;;;;;;;3.09;69.48;99087.97;2617162;54;20030;-66
2022/04/11 04:21:20;;;;;;;7.65;5.30;;;;;;;3.15;69.32;99080.44;2617521;54;20035;-67
2022/04/11 04:23:51;;;;;;;15.75;7.80;;;;;;;3.19;69.50;99084.41;2617665;54;20038;-66
2022/04/11 04:26:27;;;;;;;9.95;5.47;;;;;;;3.25;69.66;99087.44;2617500;47;20046;-67
2022/04/11 04:29:00;;;;;;;5.97;4.57;;;;;;;3.27;69.38;99085.53;2617273;54;20029;-66
2022/04/11 04:31:33;;;;;;;7.13;5.13;;;;;;;3.28;69.13;99087.97;2617611;54;20030;-66
2022/04/11 04:34:04;;;;;;;7.65;5.13;;;;;;;3.27;68.69;99090.75;2617939;54;20030;-66
2022/04/11 04:36:34;;;;;;;9.88;7.18;;;;;;;3.12;68.52;99085.09;2617530;47;20053;-66
2022/04/11 04:39:04;;;;;;;12.93;7.63;;;;;;;3.03;69.13;99081.53;2617302;47;20026;-66
2022/04/11 04:41:41;;;;;;;11.52;7.80;;;;;;;2.98;69.00;99073.28;2617787;54;20109;-66
2022/04/11 04:44:13;;;;;;;6.85;5.53;;;;;;;2.89;69.09;99081.94;2618658;54;20030;-65
2022/04/11 04:46:47;;;;;;;10.07;5.80;;;;;;;2.79;69.62;99086.34;2620464;47;20095;-65
2022/04/11 04:49:43;;;;;;;8.10;5.45;;;;;;;2.73;69.60;99079.84;2622368;39;20493;-65
2022/04/11 04:52:15;;;;;;;7.25;5.30;;;;;;;2.69;69.53;99081.09;2620294;54;20061;-65
2022/04/11 04:54:55;;;;;;;12.77;5.50;;;;;;;2.74;70.29;99084.13;2618543;39;20458;-65
2022/04/11 04:57:28;;;;;;;8.10;4.80;;;;;;;2.81;70.32;99076.56;2617124;54;20045;-65
2022/04/11 04:59:57;;;;;;;7.60;5.00;;;;;;;2.83;69.66;99079.88;2618070;54;20038;-65
2022/04/11 05:02:38;;;;;;;10.27;5.07;;;;;;;2.82;69.67;99075.63;2617460;47;20058;-65
2022/04/11 05:05:15;;;;;;;13.90;5.68;;;;;;;2.77;69.52;99078.63;2617873;39;20093;-65
2022/04/11 05:07:46;;;;;;;8.32;5.45;;;;;;;2.77;69.85;99077.78;2616959;54;20033;-66
2022/04/11 05:10:21;;;;;;;9.27;5.38;;;;;;;2.78;69.93;99079.47;2617330;46;20029;-66
2022/04/11 05:12:54;;;;;;;7.82;5.60;;;;;;;2.82;70.02;99084.28;2617503;47;20030;-68
2022/04/11 05:15:26;;;;;;;8.02;5.60;;;;;;;2.92;69.91;99082.47;2617271;47;20054;-66
2022/04/11 05:18:01;;;;;;;9.85;5.88;;;;;;;3.05;69.56;99081.38;2616997;54;20035;-66
2022/04/11 05:20:33;;;;;;;8.65;5.57;;;;;;;3.07;69.13;99082.91;2617615;47;20042;-67
2022/04/11 05:23:03;;;;;;;8.00;5.45;;;;;;;3.11;69.45;99083.47;2617310;46;20034;-67
2022/04/11 05:25:37;;;;;;;13.13;5.85;;;;;;;3.10;69.16;99087.88;2617548;39;20427;-66
2022/04/11 05:28:09;;;;;;;18.13;6.00;;;;;;;3.10;69.00;99090.47;2617662;54;20053;-67
2022/04/11 05:30:50;;;;;;;10.30;6.05;;;;;;;3.07;68.92;99085.53;2617174;54;20581;-67
2022/04/11 05:33:22;;;;;;;8.35;6.88;;;;;;;3.06;69.08;99090.88;2617673;39;20412;-69
2022/04/11 05:35:52;;;;;;;8.07;5.55;;;;;;;3.07;69.27;99092.53;2617150;54;20054;-66
2022/04/11 05:38:23;;;;;;;12.32;6.45;;;;;;;3.13;68.90;99091.97;2616921;54;20030;-66
2022/04/11 05:40:56;;;;;;;11.30;7.10;;;;;;;3.15;69.28;99090.06;2617311;54;20084;-66
2022/04/11 05:43:38;;;;;;;9.27;6.38;;;;;;;3.24;69.02;99094.44;2617438;46;20033;-66
2022/04/11 05:46:08;;;;;;;8.10;5.82;;;;;;;3.34;68.95;99104.88;2617868;54;20555;-66
2022/04/11 05:48:40;;;;;;;9.57;6.63;;;;;;;3.41;68.59;99096.34;2616873;47;20035;-67
2022/04/11 05:51:10;;;;;;;7.18;5.70;;;;;;;3.44;68.50;99092.66;2617047;47;20099;-67
2022/04/11 05:53:40;;;;;;;7.05;5.32;;;;;;;3.46;68.54;99101.97;2618263;39;20574;-67
2022/04/11 05:56:10;;;;;;;8.52;5.60;;;;;;;3.52;68.21;99099.78;2617280;54;20159;-67
2022/04/11 05:58:43;;;;;;;8.93;6.78;;;;;;;3.56;67.94;99094.13;2616781;47;20061;-65
2022/04/11 06:01:14;;;;;;;8.55;6.00;;;;;;;3.63;68.42;99097.00;2617253;54;20553;-65
2022/04/11 06:03:44;;;;;;;11.35;6.18;;;;;;;3.71;68.35;99095.34;2617287;54;20042;-66
2022/04/11 06:06:15;;;;;;;8.75;5.45;;;;;;;3.80;67.96;99098.91;2617275;46;20039;-65
2022/04/11 06:08:45;;;;;;;12.00;6.88;;;;;;;3.91;68.03;99096.09;2617126;54;20019;-65
2022/04/11 06:11:15;;;;;;;20.75;10.73;;;;;;;4.05;67.94;99096.63;2617532;54;20053;-66
2022/04/11 06:13:49;;;;;;;10.07;7.57;;;;;;;4.17;67.60;99092.84;2617489;54;20023;-66
2022/04/11 06:16:19;;;;;;;10.65;7.22;;;;;;;4.29;67.22;99098.72;2617408;54;20026;-66
2022/04/11 06:18:49;;;;;;;9.18;6.28;;;;;;;4.37;66.82;99097.00;2617139;54;20110;-66
2022/04/11 06:21:19;;;;;;;10.63;6.30;;;;;;;4.47;66.00;99096.94;2617331;54;20042;-66
2022/04/11 06:23:49;;;;;;;7.45;5.45;;;;;;;4.52;65.77;99094.72;2617920;39;20429;-66
2022/04/11 06:26:21;;;;;;;9.10;5.50;;;;;;;4.63;65.62;99096.31;2617293;47;20053;-65
2022/04/11 06:28:54;;;;;;;8.02;6.03;;;;;;;4.71;64.64;99097.22;2617047;54;20059;-65
2022/04/11 06:31:24;;;;;;;11.63;5.68;;;;;;;4.80;64.77;99087.66;2617249;54;20555;-66
2022/04/11 06:33:59;;;;;;;12.52;5.93;;;;;;;4.90;64.29;99088.41;2618401;54;20026;-66
2022/04/11 06:36:33;;;;;;;7.97;5.57;;;;;;;5.01;63.86;99084.72;2621438;54;20035;-66
2022/04/11 06:39:03;;;;;;;10.48;8.07;;;;;;;5.12;63.73;99081.06;2623098;54;20038;-66
2022/04/11 06:41:37;;;;;;;11.95;7.78;;;;;;;5.21;63.45;99082.78;2623338;46;20033;-66
2022/04/11 06:44:10;;;;;;;9.05;6.43;;;;;;;5.31;62.95;99086.16;2621903;54;20049;-67
2022/04/11 06:47:04;;;;;;;9.23;7.93;;;;;;;5.42;62.56;99082.44;2619409;54;20061;-68
2022/04/11 06:49:34;;;;;;;11.95;6.38;;;;;;;5.55;62.36;99082.03;2617293;51;20034;-67
2022/04/11 06:52:04;;;;;;;7.53;5.75;;;;;;;5.66;61.33;99085.22;2617360;47;20034;-65
2022/04/11 06:54:35;;;;;;;9.05;5.93;;;;;;;5.76;61.27;99084.31;2618126;54;20031;-65
2022/04/11 06:57:05;;;;;;;12.10;5.65;;;;;;;5.86;60.55;99088.47;2617497;54;20554;-65
2022/04/11 06:59:37;;;;;;;10.30;5.13;;;;;;;5.96;60.67;99080.53;2617974;54;20019;-66
2022/04/11 07:02:07;;;;;;;8.60;5.03;;;;;;;6.05;59.69;99076.97;2617808;54;20046;-66
2022/04/11 07:04:37;;;;;;;10.60;6.22;;;;;;;6.14;60.09;99072.56;2620258;54;20607;-67
2022/04/11 07:07:07;;;;;;;10.95;8.45;;;;;;;6.26;60.11;99075.75;2620471;54;20027;-65
2022/04/11 07:09:38;;;;;;;6.80;5.18;;;;;;;6.44;59.66;99072.00;2619849;54;20073;-66
2022/04/11 07:12:09;;;;;;;8.07;4.32;;;;;;;6.58;59.78;99082.91;2617763;54;20550;-67
2022/04/11 07:14:41;;;;;;;10.82;4.55;;;;;;;6.81;58.70;99080.47;2617628;54;20029;-65
2022/04/11 07:17:11;;;;;;;6.60;4.68;;;;;;;6.93;58.82;99076.56;2617399;54;20061;-65
2022/04/11 07:19:40;;;;;;;10.73;4.95;;;;;;;7.02;57.44;99080.88;2617680;54;20026;-66
2022/04/11 07:22:10;;;;;;;6.88;4.57;;;;;;;7.11;57.86;99084.31;2617716;54;20030;-67
2022/04/11 07:24:41;;;;;;;6.70;4.55;;;;;;;7.24;56.38;99074.13;2617799;54;20034;-66
2022/04/11 07:27:10;;;;;;;8.57;4.88;;;;;;;7.29;55.69;99076.25;2617387;54;20034;-67
2022/04/11 07:29:42;;;;;;;6.65;4.70;;;;;;;7.34;56.24;99077.41;2617899;54;20039;-66
2022/04/11 07:32:12;;;;;;;7.22;4.63;;;;;;;7.57;55.82;99074.94;2617126;54;20030;-65
2022/04/11 07:34:42;;;;;;;7.25;4.43;;;;;;;7.73;53.79;99081.16;2617514;47;20038;-65
2022/04/11 07:37:12;;;;;;;5.15;3.90;;;;;;;7.73;53.96;99075.91;2617949;54;20042;-66
2022/04/11 07:39:41;;;;;;;4.38;3.78;;;;;;;7.80;54.29;99082.94;2618216;54;20034;-66
2022/04/11 07:42:11;;;;;;;7.00;4.35;;;;;;;7.92;53.30;99081.63;2618284;54;20034;-65
2022/04/11 07:44:44;;;;;;;8.50;3.85;;;;;;;7.88;52.43;99071.59;2617471;54;20034;-64
2022/04/11 07:47:14;;;;;;;7.28;3.90;;;;;;;7.86;52.99;99074.38;2616576;54;20036;-64
2022/04/11 07:49:44;;;;;;;9.68;4.75;;;;;;;7.93;53.26;99072.72;2617350;54;20138;-64
2022/04/11 07:52:14;;;;;;;8.50;4.22;;;;;;;8.13;52.61;99064.44;2617401;47;20030;-68
2022/04/11 07:54:44;;;;;;;8.90;4.72;;;;;;;8.27;53.18;99065.53;2617685;54;20030;-66
2022/04/11 07:57:14;;;;;;;8.00;4.53;;;;;;;8.37;52.31;99063.53;2617238;54;20034;-65
2022/04/11 08:00:09;;;;;;;5.75;3.78;;;;;;;8.49;51.40;99063.94;2617209;47;20026;-63
2022/04/11 08:02:42;;;;;;;5.85;4.15;;;;;;;8.54;51.19;99066.91;2617565;54;20065;-65
2022/04/11 08:05:13;;;;;;;7.28;3.53;;;;;;;8.52;50.68;99063.63;2617570;54;20550;-66
2022/04/11 08:07:43;;;;;;;5.22;3.65;;;;;;;8.60;51.48;99061.75;2617059;54;20038;-65
2022/04/11 08:10:13;;;;;;;4.93;3.70;;;;;;;8.68;50.91;99061.69;2617527;54;20026;-66
2022/04/11 08:12:43;;;;;;;7.70;3.45;;;;;;;8.76;50.15;99058.19;2617903;39;20432;-65
2022/04/11 08:15:16;;;;;;;4.80;3.50;;;;;;;8.83;50.56;99059.16;2617503;54;20134;-66
2022/04/11 08:17:46;;;;;;;6.30;3.75;;;;;;;8.89;49.84;99058.44;2617047;54;20035;-65
2022/04/11 08:20:16;;;;;;;6.03;3.28;;;;;;;9.00;49.48;99049.31;2617459;54;20060;-64
2022/04/11 08:22:47;;;;;;;5.60;3.65;;;;;;;9.06;49.90;99051.25;2618240;54;20030;-65
2022/04/11 08:25:17;;;;;;;8.02;3.22;;;;;;;9.21;48.37;99053.91;2618293;54;20026;-65
2022/04/11 08:27:48;;;;;;;5.40;3.40;;;;;;;9.22;47.68;99047.63;2617145;47;20034;-65
2022/04/11 08:30:20;;;;;;;7.25;3.35;;;;;;;9.27;47.84;99032.13;2618312;54;20125;-66
2022/04/11 08:32:52;;;;;;;6.82;2.95;;;;;;;9.37;48.37;99032.66;2618173;54;20041;-65
2022/04/11 08:35:23;;;;;;;4.57;3.33;;;;;;;9.51;47.23;99033.72;2617621;47;20569;-66
2022/04/11 08:37:53;;;;;;;3.90;2.72;;;;;;;9.60;46.92;99037.09;2617829;54;20030;-66
2022/04/11 08:40:22;;;;;;;3.63;2.85;;;;;;;9.71;46.79;99030.53;2618205;54;20038;-65
2022/04/11 08:42:53;;;;;;;6.03;3.13;;;;;;;9.83;47.21;99029.88;2618365;54;20038;-65
2022/04/11 08:45:27;;;;;;;4.43;2.92;;;;;;;9.97;46.03;99024.81;2618303;54;20038;-65
2022/04/11 08:47:56;;;;;;;4.25;2.80;;;;;;;10.07;45.33;99022.69;2617828;54;20076;-66
2022/04/11 08:50:27;;;;;;;6.00;3.05;;;;;;;10.15;44.66;99018.13;2618287;54;20037;-66
2022/04/11 08:52:58;;;;;;;3.75;2.67;;;;;;;10.23;45.73;99011.91;2618230;54;20030;-65
2022/04/11 08:55:27;;;;;;;6.35;2.90;;;;;;;10.38;44.62;99009.28;2618301;54;20030;-65
2022/04/11 08:58:01;;;;;;;3.63;2.60;;;;;;;10.52;44.33;99007.59;2617911;54;20069;-66
2022/04/11 09:00:33;;;;;;;5.85;2.92;;;;;;;10.65;43.76;99008.59;2622576;54;20030;-67
2022/04/11 09:03:03;;;;;;;3.17;2.25;;;;;;;10.68;43.87;99007.38;2622208;54;20045;-65
2022/04/11 09:05:34;;;;;;;2.53;1.95;;;;;;;10.89;42.50;98995.97;2620275;54;20059;-65
2022/04/11 09:08:04;;;;;;;2.90;1.90;;;;;;;11.07;42.46;98996.34;2617141;54;20034;-66
2022/04/11 09:10:37;;;;;;;5.13;2.58;;;;;;;11.20;40.88;98992.16;2617497;54;20026;-66
2022/04/11 09:13:08;;;;;;;5.05;2.40;;;;;;;11.26;41.25;98994.03;2617384;54;20031;-66
2022/04/11 09:15:45;;;;;;;5.75;2.25;;;;;;;11.36;39.70;98994.53;2617944;54;20082;-65
2022/04/11 09:18:15;;;;;;;3.65;1.95;;;;;;;11.43;40.11;98992.75;2617719;54;20043;-66
2022/04/11 09:20:47;;;;;;;4.47;2.20;;;;;;;11.48;39.24;98990.34;2618071;54;20029;-67
2022/04/11 09:23:21;;;;;;;6.35;2.42;;;;;;;11.50;39.56;98988.31;2618373;39;20420;-68
2022/04/11 09:25:51;;;;;;;6.95;2.75;;;;;;;11.63;39.50;99000.81;2618471;39;20432;-66
2022/04/11 09:28:21;;;;;;;3.53;2.50;;;;;;;11.71;38.66;99002.47;2617826;54;20082;-65
2022/04/11 09:30:53;;;;;;;7.20;3.80;;;;;;;11.79;39.14;98992.53;2618184;54;20026;-67
2022/04/11 09:33:24;;;;;;;3.60;2.10;;;;;;;11.90;37.93;98992.03;2617892;54;20129;-67
2022/04/11 09:35:53;;;;;;;4.15;2.25;;;;;;;11.96;38.02;98993.09;2618172;54;20047;-66
2022/04/11 09:38:25;;;;;;;2.97;2.00;;;;;;;12.02;37.74;98988.81;2618113;39;20374;-67
2022/04/11 09:40:55;;;;;;;3.03;2.28;;;;;;;12.03;38.25;98982.50;2617404;54;20031;-67
2022/04/11 09:43:27;;;;;;;3.60;1.98;;;;;;;12.10;37.74;98976.22;2618021;54;20039;-67
2022/04/11 09:46:01;;;;;;;3.75;1.83;;;;;;;12.15;37.97;98970.31;2617967;54;20074;-67
2022/04/11 09:48:32;;;;;;;2.25;1.52;;;;;;;12.22;37.74;98968.53;2617482;54;20030;-66
2022/04/11 09:51:02;;;;;;;2.83;2.05;;;;;;;12.38;37.95;98967.34;2617870;54;20551;-67
2022/04/11 09:53:34;;;;;;;4.30;2.15;;;;;;;12.42;37.22;98960.63;2618026;54;20046;-67
2022/04/11 09:56:06;;;;;;;3.17;1.90;;;;;;;12.39;37.01;98950.41;2617480;54;20046;-67
2022/04/11 09:58:37;;;;;;;2.65;2.03;;;;;;;12.35;36.87;98957.94;2618219;39;20450;-67
2022/04/11 10:01:10;;;;;;;3.22;1.75;;;;;;;12.45;37.22;98954.09;2618095;54;20043;-67
2022/04/11 10:03:41;;;;;;;7.57;2.20;;;;;;;12.56;36.75;98956.97;2618360;54;20038;-67
2022/04/11 10:06:14;;;;;;;2.85;1.77;;;;;;;12.62;36.83;98960.66;2618099;54;20288;-68
2022/04/11 10:08:44;;;;;;;5.85;2.17;;;;;;;12.70;36.33;98951.72;2617598;54;20033;-64
2022/04/11 10:11:14;;;;;;;6.20;2.03;;;;;;;12.79;34.37;98951.31;2618070;54;20026;-65
2022/04/11 10:13:44;;;;;;;9.43;7.47;;;;;;;12.82;34.87;98953.56;2617990;54;20027;-67
2022/04/11 10:16:17;;;;;;;3.00;2.70;;;;;;;12.90;34.30;98939.28;2617496;54;20034;-64
2022/04/11 10:18:47;;;;;;;2.97;2.20;;;;;;;12.92;35.04;98931.91;2618127;54;20035;-63
2022/04/11 10:21:17;;;;;;;3.85;2.40;;;;;;;13.01;35.11;98940.47;2618586;54;20030;-63
2022/04/11 10:24:05;;;;;;;4.28;2.58;;;;;;;13.01;35.20;98927.22;2618400;54;20041;-63
2022/04/11 10:26:46;;;;;;;3.20;1.88;;;;;;;12.97;36.34;98923.34;2618225;54;20110;-62
2022/04/11 10:29:33;;;;;;;2.78;1.88;;;;;;;13.14;36.44;98919.22;2617618;54;20592;-64
2022/04/11 10:32:10;;;;;;;6.45;2.45;;;;;;;13.30;35.46;98916.16;2618268;54;20037;-65
2022/04/11 10:34:58;;;;;;;5.97;2.85;;;;;;;13.42;35.84;98921.66;2618222;54;20034;-64
2022/04/11 10:37:29;;;;;;;9.25;3.13;;;;;;;13.44;35.95;98911.66;2617981;54;20035;-65
2022/04/11 10:40:29;;;;;;;5.03;2.80;;;;;;;13.48;35.94;98909.41;2618340;54;20814;-64
2022/04/11 10:43:16;;;;;;;2.72;2.05;;;;;;;13.47;35.45;98900.63;2618012;54;20554;-65
2022/04/11 10:45:57;;;;;;;2.22;1.95;;;;;;;13.36;35.62;98894.13;2618281;54;20589;-64
2022/04/11 10:48:57;;;;;;;3.22;2.60;;;;;;;13.42;35.46;98891.66;2617773;54;20030;-64
2022/04/11 10:51:29;;;;;;;4.32;2.10;;;;;;;13.41;35.12;98887.38;2617987;54;20031;-65
2022/04/11 10:54:21;;;;;;;1.92;1.60;;;;;;;13.36;36.32;98894.13;2617538;54;20042;-64
2022/04/11 10:57:11;;;;;;;3.95;1.90;;;;;;;13.52;34.88;98876.09;2618584;39;20117;-63
2022/04/11 11:00:07;;;;;;;4.93;2.65;;;;;;;13.61;34.99;98880.16;2618171;54;20034;-64
2022/04/11 11:03:09;;;;;;;6.85;3.88;;;;;;;13.70;35.13;98878.88;2618256;54;20038;-63
2022/04/11 11:05:41;;;;;;;4.47;1.77;;;;;;;13.67;34.79;98873.16;2618586;39;20403;-65
2022/04/11 11:08:29;;;;;;;2.92;2.25;;;;;;;13.70;34.57;98872.75;2618015;39;20513;-64
2022/04/11 11:11:00;;;;;;;3.90;1.95;;;;;;;13.78;35.13;98859.22;2618707;39;20430;-64
2022/04/11 11:13:33;;;;;;;3.33;1.77;;;;;;;14.01;34.86;98853.41;2618202;54;20038;-64
2022/04/11 11:16:24;;;;;;;3.33;2.17;;;;;;;14.15;34.39;98854.13;2618101;54;20049;-64
2022/04/11 11:19:17;;;;;;;4.53;1.80;;;;;;;14.25;33.33;98857.13;2617783;54;20035;-63
2022/04/11 11:22:02;;;;;;;;;;;;;;;14.35;32.79;98850.31;2618302;54;20023;-64
2022/04/11 11:24:35;;;;;;;3.70;1.67;;;;;;;14.33;33.25;98846.25;2617605;47;19938;-65
2022/04/11 11:27:08;;;;;;;4.43;1.75;;;;;;;14.31;33.33;98843.78;2617207;47;20026;-64
2022/04/11 11:29:45;;;;;;;3.28;1.73;;;;;;;14.31;32.75;98841.13;2618095;54;20022;-64
2022/04/11 11:32:15;;;;;;;8.50;2.03;;;;;;;14.33;32.71;98833.75;2617884;54;20034;-64
2022/04/11 11:34:46;;;;;;;2.65;1.30;;;;;;;14.25;32.30;98838.53;2617883;54;20035;-65
2022/04/11 11:37:16;;;;;;;2.60;1.90;;;;;;;14.29;32.61;98842.38;2617465;54;20035;-64
2022/04/11 11:39:49;;;;;;;4.65;2.67;;;;;;;14.32;32.48;98833.97;2618122;39;20439;-64
2022/04/11 11:42:18;;;;;;;2.95;1.60;;;;;;;14.48;33.24;98821.97;2617390;54;20031;-64
2022/04/11 11:44:50;;;;;;;3.35;2.40;;;;;;;14.63;32.69;98819.03;2618446;39;20451;-63
2022/04/11 11:47:28;;;;;;;4.10;2.20;;;;;;;14.73;32.18;98820.13;2618126;39;20446;-65
2022/04/11 11:50:07;;;;;;;3.42;1.90;;;;;;;14.76;31.71;98813.56;2617856;54;20038;-64
2022/04/11 11:52:40;;;;;;;3.90;1.70;;;;;;;14.93;31.39;98827.13;2618189;54;20030;-62
2022/04/11 11:55:13;;;;;;;2.83;1.83;;;;;;;15.00;31.89;98818.03;2617560;47;20035;-63
2022/04/11 11:57:43;;;;;;;4.53;2.33;;;;;;;15.01;32.36;98817.00;2618922;39;20444;-63
2022/04/11 12:00:14;;;;;;;2.97;2.05;;;;;;;15.12;32.16;98812.81;2618881;54;20031;-63
2022/04/11 12:05:28;;;;;;;2.03;1.30;;;;;;;15.36;30.64;98805.78;2618753;54;20042;-64
2022/04/11 12:08:17;;;;;;;1.42;1.20;;;;;;;15.36;31.24;98795.94;2618502;54;20046;-63